createdAt,value
2022-09-20T00:01:09.036Z,91.24
2022-09-20T00:03:37.525Z,91.79
2022-09-20T00:06:06.065Z,91.83
2022-09-20T00:08:32.870Z,91.50
2022-09-20T00:11:07.687Z,91.70
2022-09-20T00:13:35.176Z,92.02
2022-09-20T00:16:06.566Z,91.63
2022-09-20T00:18:33.056Z,90.97
2022-09-20T00:20:59.537Z,91.02
2022-09-20T00:23:26.014Z,91.22
2022-09-20T00:25:57.743Z,91.09
2022-09-20T00:28:24.945Z,91.37
2022-09-20T00:30:53.004Z,91.88
2022-09-20T00:33:20.204Z,91.72
2022-09-20T00:35:47.247Z,91.49
2022-09-20T00:38:14.619Z,91.47
2022-09-20T00:40:42.763Z,91.47
2022-09-20T00:43:17.068Z,91.68
2022-09-20T00:45:48.785Z,92.19
2022-09-20T00:48:25.317Z,92.02
2022-09-20T00:50:57.863Z,92.79
2022-09-20T00:53:31.965Z,92.02
2022-09-20T00:56:03.890Z,92.75
2022-09-20T00:58:36.181Z,92.69
2022-09-20T01:01:05.558Z,92.64
2022-09-20T01:03:36.469Z,92.78
2022-09-20T01:06:06.959Z,93.43
2022-09-20T01:08:35.166Z,92.92
2022-09-20T01:11:02.437Z,92.67
2022-09-20T01:13:28.917Z,93.18
2022-09-20T01:15:58.995Z,92.87
2022-09-20T01:18:27.309Z,93.77
2022-09-20T01:20:54.729Z,93.63
2022-09-20T01:23:33.344Z,93.16
2022-09-20T01:26:12.045Z,93.37
2022-09-20T01:28:42.290Z,93.75
2022-09-20T01:31:23.993Z,93.15
2022-09-20T01:33:56.012Z,92.86
2022-09-20T01:36:42.982Z,93.07
2022-09-20T01:39:32.639Z,93.43
2022-09-20T01:42:05.520Z,93.05
2022-09-20T01:44:46.293Z,93.32
2022-09-20T01:47:42.973Z,93.24
2022-09-20T01:50:25.720Z,93.05
2022-09-20T01:53:16.574Z,92.46
2022-09-20T01:56:10.992Z,92.71
2022-09-20T01:59:07.150Z,93.12
2022-09-20T02:01:49.970Z,92.84
2022-09-20T02:04:41.147Z,92.56
2022-09-20T02:07:13.834Z,93.31
2022-09-20T02:09:54.769Z,92.80
2022-09-20T02:12:56.786Z,92.81
2022-09-20T02:15:32.285Z,93.71
2022-09-20T02:18:32.900Z,93.04
2022-09-20T02:21:35.515Z,93.49
2022-09-20T02:24:28.548Z,93.37
2022-09-20T02:27:07.099Z,93.50
2022-09-20T02:29:58.267Z,93.30
2022-09-20T02:32:43.565Z,93.05
2022-09-20T02:35:32.479Z,93.59
2022-09-20T02:38:18.080Z,93.49
2022-09-20T02:41:06.337Z,93.54
2022-09-20T02:43:44.756Z,94.05
2022-09-20T02:46:36.653Z,94.28
2022-09-20T02:49:17.026Z,93.67
2022-09-20T02:51:53.734Z,93.99
2022-09-20T02:54:25.926Z,94.32
2022-09-20T02:57:00.588Z,94.28
2022-09-20T02:59:34.110Z,94.76
2022-09-20T03:02:06.419Z,94.95
2022-09-20T03:04:52.828Z,95.22
2022-09-20T03:07:34.161Z,94.86
2022-09-20T03:10:00.492Z,95.53
2022-09-20T03:12:54.032Z,95.21
2022-09-20T03:16:01.573Z,95.74
2022-09-20T03:18:46.825Z,95.67
2022-09-20T03:21:29.185Z,95.88
2022-09-20T03:24:08.985Z,95.66
2022-09-20T03:27:04.766Z,95.81
2022-09-20T03:29:31.154Z,96.39
2022-09-20T03:32:16.564Z,95.86
2022-09-20T03:34:53.934Z,95.63
2022-09-20T03:37:25.976Z,95.96
2022-09-20T03:39:52.713Z,96.11
2022-09-20T03:42:24.774Z,96.42
2022-09-20T03:45:15.843Z,96.67
2022-09-20T03:48:05.636Z,96.17
2022-09-20T03:50:54.180Z,96.69
2022-09-20T03:53:32.334Z,96.43
2022-09-20T03:56:18.757Z,96.26
2022-09-20T03:59:22.755Z,96.93
2022-09-20T04:02:12.312Z,96.27
2022-09-20T04:04:52.750Z,96.67
2022-09-20T04:07:43.794Z,96.99
2022-09-20T04:10:30.613Z,96.27
2022-09-20T04:13:21.868Z,97.10
2022-09-20T04:16:17.443Z,96.50
2022-09-20T04:18:56.504Z,96.22
2022-09-20T04:21:32.552Z,96.30
2022-09-20T04:24:23.544Z,96.95
2022-09-20T04:27:00.708Z,96.94
2022-09-20T04:29:28.039Z,97.32
2022-09-20T04:32:04.502Z,97.35
2022-09-20T04:35:04.496Z,97.51
2022-09-20T04:37:34.235Z,97.76
2022-09-20T04:40:26.235Z,97.55
2022-09-20T04:43:01.757Z,97.71
2022-09-20T04:45:51.380Z,97.54
2022-09-20T04:48:51.548Z,97.41
2022-09-20T04:51:36.466Z,98.02
2022-09-20T04:54:24.957Z,97.73
2022-09-20T04:57:19.428Z,98.16
2022-09-20T05:00:08.566Z,97.46
2022-09-20T05:03:12.921Z,97.38
2022-09-20T05:06:24.740Z,97.70
2022-09-20T05:09:07.738Z,97.90
2022-09-20T05:11:54.185Z,97.74
2022-09-20T05:14:45.161Z,97.48
2022-09-20T05:17:44.757Z,97.98
2022-09-20T05:20:42.653Z,97.44
2022-09-20T05:23:36.474Z,97.36
2022-09-20T05:26:35.782Z,97.23
2022-09-20T05:29:18.627Z,97.90
2022-09-20T05:32:10.519Z,97.42
2022-09-20T05:34:52.569Z,97.33
2022-09-20T05:37:46.967Z,97.28
2022-09-20T05:40:32.384Z,97.70
2022-09-20T05:43:30.790Z,97.65
2022-09-20T05:46:03.141Z,97.25
2022-09-20T05:48:43.300Z,97.27
2022-09-20T05:51:29.268Z,96.93
2022-09-20T05:54:17.420Z,97.34
2022-09-20T05:56:56.151Z,97.71
2022-09-20T05:59:56.317Z,97.54
2022-09-20T06:02:33.865Z,98.06
2022-09-20T06:05:15.858Z,97.49
2022-09-20T06:08:03.794Z,97.19
2022-09-20T06:10:43.485Z,97.55
2022-09-20T06:13:30.154Z,98.03
2022-09-20T06:16:02.385Z,97.64
2022-09-20T06:18:43.261Z,97.27
2022-09-20T06:21:33.705Z,97.60
2022-09-20T06:24:01.341Z,97.60
2022-09-20T06:26:36.860Z,97.93
2022-09-20T06:29:07.306Z,98.06
2022-09-20T06:31:33.857Z,98.02
2022-09-20T06:34:03.249Z,98.08
2022-09-20T06:36:53.978Z,98.09
2022-09-20T06:39:48.053Z,97.59
2022-09-20T06:42:14.500Z,97.70
2022-09-20T06:44:43.200Z,97.84
2022-09-20T06:47:15.559Z,97.39
2022-09-20T06:49:46.737Z,97.72
2022-09-20T06:52:18.691Z,97.46
2022-09-20T06:54:46.954Z,97.31
2022-09-20T06:57:17.617Z,97.03
2022-09-20T06:59:44.367Z,97.04
2022-09-20T07:02:10.995Z,96.60
2022-09-20T07:04:37.849Z,96.53
2022-09-20T07:07:09.240Z,96.40
2022-09-20T07:09:36.264Z,95.67
2022-09-20T07:12:03.121Z,95.74
2022-09-20T07:14:29.644Z,95.72
2022-09-20T07:16:56.072Z,95.31
2022-09-20T07:19:23.358Z,95.07
2022-09-20T07:21:49.904Z,94.81
2022-09-20T07:24:16.367Z,94.29
2022-09-20T07:26:56.222Z,94.07
2022-09-20T07:29:22.997Z,93.88
2022-09-20T07:31:50.808Z,92.71
2022-09-20T07:34:20.166Z,92.88
2022-09-20T07:36:47.802Z,92.52
2022-09-20T07:39:14.587Z,92.74
2022-09-20T07:41:41.082Z,92.80
2022-09-20T07:44:24.913Z,92.43
2022-09-20T07:46:57.921Z,92.50
2022-09-20T07:49:26.174Z,92.30
2022-09-20T07:51:53.618Z,91.99
2022-09-20T07:54:20.841Z,90.39
2022-09-20T07:56:48.069Z,89.28
2022-09-20T07:59:15.249Z,88.82
2022-09-20T08:01:42.468Z,89.65
2022-09-20T08:04:10.197Z,88.56
2022-09-20T08:06:42.604Z,88.30
2022-09-20T08:09:11.298Z,87.57
2022-09-20T08:11:40.797Z,87.08
2022-09-20T08:14:09.148Z,86.44
2022-09-20T08:16:41.112Z,86.65
2022-09-20T08:19:08.652Z,86.02
2022-09-20T08:21:37.921Z,86.20
2022-09-20T08:24:04.616Z,86.27
2022-09-20T08:26:31.612Z,86.10
2022-09-20T08:28:59.654Z,86.17
2022-09-20T08:31:28.201Z,85.95
2022-09-20T08:33:54.776Z,85.79
2022-09-20T08:36:26.060Z,86.07
2022-09-20T08:41:51.262Z,85.18
2022-09-20T08:44:35.146Z,84.86
2022-09-20T08:47:14.159Z,83.94
2022-09-20T08:49:45.757Z,83.53
2022-09-20T08:52:19.373Z,83.37
2022-09-20T08:54:46.728Z,83.34
2022-09-20T08:57:17.306Z,83.41
2022-09-20T08:59:44.681Z,82.03
2022-09-20T09:02:17.501Z,80.40
2022-09-20T09:04:45.239Z,79.54
2022-09-20T09:07:15.010Z,80.23
2022-09-20T09:09:46.552Z,77.61
2022-09-20T09:12:29.248Z,78.39
2022-09-20T09:15:02.477Z,77.56
2022-09-20T09:17:30.315Z,75.14
2022-09-20T09:19:59.695Z,76.06
2022-09-20T09:22:40.031Z,76.39
2022-09-20T09:25:22.523Z,75.67
2022-09-20T09:27:58.353Z,74.31
2022-09-20T09:30:31.316Z,74.88
2022-09-20T09:33:19.717Z,75.30
2022-09-20T09:36:15.277Z,74.98
2022-09-20T09:38:47.609Z,75.55
2022-09-20T09:41:32.931Z,73.93
2022-09-20T09:44:09.618Z,74.67
2022-09-20T09:46:38.488Z,74.50
2022-09-20T09:49:18.213Z,76.62
2022-09-20T09:52:15.381Z,74.52
2022-09-20T09:54:51.761Z,75.00
2022-09-20T09:57:43.107Z,74.89
2022-09-20T10:00:20.651Z,74.13
2022-09-20T10:03:31.989Z,75.43
2022-09-20T10:06:43.745Z,75.23
2022-09-20T10:09:36.569Z,76.09
2022-09-20T10:12:17.707Z,76.19
2022-09-20T10:15:21.221Z,77.74
2022-09-20T10:18:07.287Z,77.55
2022-09-20T10:21:07.811Z,77.70
2022-09-20T10:24:03.173Z,77.70
2022-09-20T10:26:50.998Z,77.87
2022-09-20T10:29:27.500Z,77.49
2022-09-20T10:32:17.420Z,77.73
2022-09-20T10:35:21.288Z,76.98
2022-09-20T10:37:54.942Z,76.90
2022-09-20T10:40:53.660Z,75.47
2022-09-20T10:43:36.660Z,72.34
2022-09-20T10:46:31.946Z,71.56
2022-09-20T10:49:28.827Z,70.29
2022-09-20T10:52:16.899Z,70.03
2022-09-20T10:55:13.201Z,70.82
2022-09-20T10:58:30.468Z,70.75
2022-09-20T11:01:36.936Z,70.38
2022-09-20T11:04:32.325Z,69.45
2022-09-20T11:07:17.458Z,68.47
2022-09-20T11:09:51.879Z,67.04
2022-09-20T11:12:27.451Z,67.72
2022-09-20T11:15:26.213Z,67.49
2022-09-20T11:18:11.087Z,68.42
2022-09-20T11:20:44.197Z,66.68
2022-09-20T11:23:17.117Z,66.41
2022-09-20T11:25:51.644Z,67.55
2022-09-20T11:28:38.886Z,67.66
2022-09-20T11:31:18.026Z,67.62
2022-09-20T11:33:52.276Z,65.54
2022-09-20T11:36:34.237Z,65.77
2022-09-20T11:39:05.188Z,61.73
2022-09-20T11:41:32.180Z,62.63
2022-09-20T11:44:07.747Z,64.01
2022-09-20T11:46:40.401Z,62.74
2022-09-20T11:49:15.758Z,63.64
2022-09-20T11:52:13.078Z,63.96
2022-09-20T11:54:57.740Z,61.73
2022-09-20T11:57:24.877Z,62.75
2022-09-20T12:00:03.314Z,61.81
2022-09-20T12:02:45.111Z,61.82
2022-09-20T12:05:30.420Z,62.80
2022-09-20T12:07:59.700Z,60.48
2022-09-20T12:10:34.652Z,60.01
2022-09-20T12:13:05.587Z,59.77
2022-09-20T12:15:40.113Z,61.14
2022-09-20T12:18:09.376Z,60.87
2022-09-20T12:20:36.173Z,61.40
2022-09-20T12:23:40.274Z,62.38
2022-09-20T12:26:18.713Z,63.29
2022-09-20T12:28:50.478Z,63.10
2022-09-20T12:31:25.882Z,65.13
2022-09-20T12:33:59.140Z,63.18
2022-09-20T12:36:28.571Z,63.03
2022-09-20T12:39:02.270Z,62.79
2022-09-20T12:41:46.304Z,62.81
2022-09-20T12:44:50.018Z,62.19
2022-09-20T12:47:22.596Z,61.48
2022-09-20T12:50:07.413Z,60.40
2022-09-20T12:52:58.777Z,60.63
2022-09-20T12:55:45.461Z,63.41
2022-09-20T12:58:13.391Z,62.09
2022-09-20T13:00:59.279Z,60.70
2022-09-20T13:03:29.159Z,62.33
2022-09-20T13:06:05.530Z,64.78
2022-09-20T13:08:42.886Z,64.48
2022-09-20T13:11:20.105Z,64.46
2022-09-20T13:13:50.503Z,62.37
2022-09-20T13:16:37.192Z,64.59
2022-09-20T13:19:09.663Z,62.82
2022-09-20T13:21:42.268Z,63.75
2022-09-20T13:24:16.218Z,65.13
2022-09-20T13:26:46.089Z,66.31
2022-09-20T13:29:35.276Z,66.81
2022-09-20T13:32:26.237Z,66.69
2022-09-20T13:35:21.517Z,67.41
2022-09-20T13:37:50.622Z,68.37
2022-09-20T13:40:24.033Z,68.41
2022-09-20T13:43:12.895Z,68.23
2022-09-20T13:45:42.523Z,66.22
2022-09-20T13:48:09.356Z,65.21
2022-09-20T13:50:40.049Z,67.52
2022-09-20T13:53:33.542Z,65.76
2022-09-20T13:56:14.067Z,67.49
2022-09-20T13:58:40.844Z,67.15
2022-09-20T14:01:40.027Z,65.62
2022-09-20T14:04:21.286Z,66.77
2022-09-20T14:06:49.192Z,65.20
2022-09-20T14:09:38.877Z,66.49
2022-09-20T14:12:06.516Z,66.49
2022-09-20T14:14:35.037Z,65.82
2022-09-20T14:17:05.451Z,65.24
2022-09-20T14:19:37.279Z,64.25
2022-09-20T14:22:05.197Z,63.16
2022-09-20T14:24:37.161Z,62.45
2022-09-20T14:27:17.118Z,59.54
2022-09-20T14:29:49.265Z,61.48
2022-09-20T14:32:18.330Z,62.41
2022-09-20T14:34:46.556Z,61.50
2022-09-20T14:37:27.272Z,62.03
2022-09-20T14:39:56.546Z,62.64
2022-09-20T14:42:28.655Z,61.38
2022-09-20T14:44:55.305Z,62.40
2022-09-20T14:47:54.245Z,62.79
2022-09-20T14:50:23.771Z,62.48
2022-09-20T14:53:13.380Z,63.23
2022-09-20T14:55:54.527Z,61.72
2022-09-20T14:58:20.989Z,62.71
2022-09-20T15:00:51.659Z,62.23
2022-09-20T15:03:25.666Z,58.54
2022-09-20T15:05:52.162Z,53.91
2022-09-20T15:08:20.494Z,51.31
2022-09-20T15:10:47.761Z,51.61
2022-09-20T15:13:14.780Z,54.48
2022-09-20T15:15:42.106Z,53.55
2022-09-20T15:18:26.642Z,56.35
2022-09-20T15:20:55.032Z,54.23
2022-09-20T15:23:21.914Z,54.53
2022-09-20T15:25:51.303Z,50.56
2022-09-20T15:28:18.668Z,46.56
2022-09-20T15:30:47.232Z,45.10
2022-09-20T15:33:14.537Z,44.26
2022-09-20T15:35:42.392Z,43.34
2022-09-20T15:38:11.613Z,46.06
2022-09-20T15:40:49.119Z,45.85
2022-09-20T15:43:21.481Z,42.07
2022-09-20T15:46:00.619Z,46.08
2022-09-20T15:48:29.893Z,47.86
2022-09-20T15:51:11.302Z,50.09
2022-09-20T15:53:38.733Z,47.83
2022-09-20T15:56:15.468Z,48.93
2022-09-20T15:58:48.494Z,49.25
2022-09-20T16:01:19.494Z,50.56
2022-09-20T16:03:46.595Z,50.82
2022-09-20T16:06:13.713Z,52.92
2022-09-20T16:08:42.507Z,56.08
2022-09-20T16:11:13.319Z,57.02
2022-09-20T16:43:41.294Z,66.79
2022-09-20T16:46:08.143Z,66.29
2022-09-20T16:54:59.907Z,67.34
2022-09-20T16:57:26.430Z,68.04
2022-09-20T16:59:55.686Z,68.97
2022-09-20T17:02:22.185Z,71.02
2022-09-20T17:04:48.746Z,70.48
2022-09-20T17:07:15.251Z,70.35
2022-09-20T17:09:41.661Z,70.25
2022-09-20T17:12:10.005Z,70.89
2022-09-20T17:14:37.082Z,70.31
2022-09-20T17:17:03.699Z,71.57
2022-09-20T17:19:30.319Z,71.95
2022-09-20T17:21:56.723Z,72.82
2022-09-20T17:24:23.728Z,72.62
2022-09-20T17:26:51.021Z,73.47
2022-09-20T17:29:18.666Z,74.20
2022-09-20T17:31:53.238Z,74.67
2022-09-20T17:34:21.612Z,74.38
2022-09-20T17:36:49.053Z,74.91
2022-09-20T17:39:16.675Z,75.72
2022-09-20T17:41:48.127Z,75.51
2022-09-20T17:44:15.658Z,75.59
2022-09-20T17:46:44.815Z,76.23
2022-09-20T17:49:13.686Z,76.97
2022-09-20T17:51:44.146Z,77.31
2022-09-20T17:54:14.946Z,78.17
2022-09-20T17:56:47.346Z,78.67
2022-09-20T17:59:18.050Z,79.10
2022-09-20T18:01:47.292Z,79.62
2022-09-20T18:04:14.325Z,80.06
2022-09-20T18:06:45.617Z,79.45
2022-09-20T18:09:15.448Z,80.38
2022-09-20T18:11:46.423Z,80.78
2022-09-20T18:14:13.691Z,80.88
2022-09-20T18:16:40.952Z,81.04
2022-09-20T18:19:08.679Z,80.80
2022-09-20T18:21:36.947Z,80.68
2022-09-20T18:24:07.973Z,81.10
2022-09-20T18:26:37.531Z,80.97
2022-09-20T18:29:12.142Z,81.23
2022-09-20T18:31:45.344Z,81.99
2022-09-20T18:34:17.683Z,82.19
2022-09-20T18:36:53.475Z,81.93
2022-09-20T18:39:24.006Z,82.63
2022-09-20T18:41:56.243Z,82.33
2022-09-20T18:44:23.637Z,82.62
2022-09-20T18:46:53.446Z,82.92
2022-09-20T18:49:22.708Z,83.03
2022-09-20T18:51:57.364Z,82.83
2022-09-20T18:54:24.005Z,83.39
2022-09-20T18:56:51.394Z,82.81
2022-09-20T18:59:26.768Z,83.18
2022-09-20T19:02:32.887Z,83.09
2022-09-20T19:05:20.638Z,83.55
2022-09-20T19:08:24.185Z,83.46
2022-09-20T19:10:58.633Z,83.84
2022-09-20T19:13:48.914Z,83.96
2022-09-20T19:16:31.162Z,83.92
2022-09-20T19:19:15.964Z,84.35
2022-09-20T19:22:31.124Z,84.90
2022-09-20T19:25:12.465Z,85.14
2022-09-20T19:27:39.277Z,85.13
2022-09-20T19:30:06.472Z,85.02
2022-09-20T19:32:34.583Z,85.44
2022-09-20T19:35:01.733Z,85.13
2022-09-20T19:37:41.914Z,84.70
2022-09-20T19:40:35.603Z,85.36
2022-09-20T19:43:16.301Z,85.44
2022-09-20T19:45:52.266Z,85.80
2022-09-20T19:48:26.828Z,85.35
2022-09-20T19:50:53.806Z,85.88
2022-09-20T19:53:24.192Z,85.85
2022-09-20T19:55:59.417Z,85.89
2022-09-20T19:58:26.059Z,85.97
2022-09-20T20:00:53.402Z,85.85
2022-09-20T20:03:23.639Z,85.60
2022-09-20T20:06:07.944Z,85.70
2022-09-20T20:08:45.789Z,85.35
2022-09-20T20:11:18.194Z,84.91
2022-09-20T20:14:16.069Z,84.44
2022-09-20T20:16:54.660Z,84.87
2022-09-20T20:19:37.712Z,84.64
2022-09-20T20:22:41.885Z,84.93
2022-09-20T20:25:34.504Z,85.02
2022-09-20T20:28:01.092Z,85.20
2022-09-20T20:30:27.568Z,85.83
2022-09-20T20:33:00.575Z,85.86
2022-09-20T20:35:27.067Z,86.02
2022-09-20T20:37:53.779Z,86.01
2022-09-20T20:40:20.483Z,85.98
2022-09-20T20:42:47.884Z,86.13
2022-09-20T20:45:14.436Z,85.78
2022-09-20T20:47:42.580Z,86.40
2022-09-20T20:50:11.904Z,86.82
2022-09-20T20:52:38.636Z,86.21
2022-09-20T20:55:06.457Z,86.24
2022-09-20T20:57:34.216Z,86.80
2022-09-20T21:00:00.762Z,86.87
2022-09-20T21:02:27.372Z,87.22
2022-09-20T21:04:53.884Z,86.76
2022-09-20T21:07:20.352Z,86.67
2022-09-20T21:09:46.868Z,86.48
2022-09-20T21:12:14.585Z,86.14
2022-09-20T21:14:41.057Z,86.90
2022-09-20T21:17:07.833Z,87.24
2022-09-20T21:19:34.338Z,87.14
2022-09-20T21:22:00.871Z,86.69
2022-09-20T21:24:27.407Z,87.12
2022-09-20T21:26:53.860Z,87.52
2022-09-20T21:29:20.833Z,87.78
2022-09-20T21:31:47.421Z,87.65
2022-09-20T21:34:15.625Z,87.37
2022-09-20T21:36:43.953Z,87.60
2022-09-20T21:39:11.278Z,87.68
2022-09-20T21:41:39.481Z,86.95
2022-09-20T21:44:07.689Z,87.22
2022-09-20T21:46:42.024Z,87.28
2022-09-20T21:49:10.993Z,87.85
2022-09-20T21:51:38.833Z,88.30
2022-09-20T21:54:05.776Z,88.44
2022-09-20T21:56:34.793Z,87.72
2022-09-20T21:59:03.791Z,87.40
2022-09-20T22:01:36.307Z,88.09
2022-09-20T22:04:11.493Z,87.76
2022-09-20T22:06:42.763Z,88.36
2022-09-20T22:09:11.655Z,88.00
2022-09-20T22:11:43.546Z,88.41
2022-09-20T22:14:11.667Z,87.84
2022-09-20T22:16:40.235Z,88.00
2022-09-20T22:19:08.861Z,88.48
2022-09-20T22:21:38.305Z,88.58
2022-09-20T22:24:07.911Z,88.78
2022-09-20T22:26:37.180Z,89.00
2022-09-20T22:29:05.112Z,89.14
2022-09-20T22:31:33.578Z,88.55
2022-09-20T22:34:02.306Z,89.30
2022-09-20T22:36:34.522Z,88.73
2022-09-20T22:39:01.665Z,88.78
2022-09-20T22:41:28.793Z,89.08
2022-09-20T22:43:55.581Z,88.78
2022-09-20T22:46:24.774Z,88.69
2022-09-20T22:48:51.494Z,88.92
2022-09-20T22:51:20.716Z,88.56
2022-09-20T22:53:48.568Z,89.30
2022-09-20T22:56:18.770Z,89.45
2022-09-20T22:58:48.729Z,89.26
2022-09-20T23:01:29.321Z,89.22
2022-09-20T23:04:03.271Z,89.61
2022-09-20T23:06:36.215Z,90.22
2022-09-20T23:09:04.903Z,89.70
2022-09-20T23:11:31.605Z,89.97
2022-09-20T23:14:01.518Z,90.09
2022-09-20T23:16:30.816Z,90.28
2022-09-20T23:18:59.183Z,90.04
2022-09-20T23:21:26.548Z,90.45
2022-09-20T23:23:55.240Z,90.80
2022-09-20T23:26:23.372Z,90.78
2022-09-20T23:29:01.407Z,90.94
2022-09-20T23:31:29.018Z,90.68
2022-09-20T23:33:58.822Z,91.08
2022-09-20T23:36:28.432Z,91.24
2022-09-20T23:38:57.034Z,91.29
2022-09-20T23:41:26.201Z,90.84
2022-09-20T23:43:53.419Z,91.05
2022-09-20T23:46:21.870Z,91.23
2022-09-20T23:48:50.308Z,90.99
2022-09-20T23:51:19.907Z,90.64
2022-09-20T23:53:46.792Z,90.54
2022-09-20T23:56:14.518Z,90.46
2022-09-20T23:58:43.165Z,90.16
